Chenois Creek, Washington
Current Conditions -  °F | °C
As of 12:53 PM on Thursday 27 Nov 2014 (Local Time) from KHQM Reporting Station
Light Rain Light Rain  
Wind Chill: 56°   Ceiling: 1000
Heat Index: 56°   Visibility: 3mi
Dew Point: 55°   Wind: 17mph
Humidity: 97%   Direction: 180°S
Pressure: 29.82"   Gusts: NA
Location:  47.0202°N, 123.878°W
Report Text: KHQM 272053Z AUTO 18015KT 3SM -RA BR BKN010 OVC028 13/13 A2982 RMK AO2 PK WND 20030/1955 RAB31 SLP102 P0001 60004 T01330128 58009
Loading
Personal Weather Stations






























Interactive Weather Map New forecast layout! Learn more

10-Day Weather Forecast

Advertisements
Track Severe Weather on mobile